sensor_id;sensor_type;location;lat;lon;timestamp;P1;durP1;ratioP1;P2;durP2;ratioP2
68484;SDS011;55472;50.060;21.960;2022-09-12T00:00:19;7.40;;;2.65;;
68484;SDS011;55472;50.060;21.960;2022-09-12T00:03:07;5.88;;;2.60;;
68484;SDS011;55472;50.060;21.960;2022-09-12T00:05:33;5.10;;;2.20;;
68484;SDS011;55472;50.060;21.960;2022-09-12T00:08:05;5.47;;;2.40;;
68484;SDS011;55472;50.060;21.960;2022-09-12T00:10:31;5.70;;;2.53;;
68484;SDS011;55472;50.060;21.960;2022-09-12T00:12:57;6.18;;;2.17;;
68484;SDS011;55472;50.060;21.960;2022-09-12T00:15:23;6.30;;;2.50;;
68484;SDS011;55472;50.060;21.960;2022-09-12T00:17:48;4.93;;;2.30;;
68484;SDS011;55472;50.060;21.960;2022-09-12T00:20:15;6.95;;;2.67;;
68484;SDS011;55472;50.060;21.960;2022-09-12T00:22:41;5.72;;;2.15;;
68484;SDS011;55472;50.060;21.960;2022-09-12T00:25:07;5.10;;;2.50;;
68484;SDS011;55472;50.060;21.960;2022-09-12T00:27:33;6.05;;;2.10;;
68484;SDS011;55472;50.060;21.960;2022-09-12T00:29:59;6.65;;;2.50;;
68484;SDS011;55472;50.060;21.960;2022-09-12T00:32:25;6.77;;;2.30;;
68484;SDS011;55472;50.060;21.960;2022-09-12T00:34:52;4.85;;;2.28;;
68484;SDS011;55472;50.060;21.960;2022-09-12T00:37:17;5.57;;;2.10;;
68484;SDS011;55472;50.060;21.960;2022-09-12T00:39:43;6.53;;;2.30;;
68484;SDS011;55472;50.060;21.960;2022-09-12T00:42:10;5.20;;;2.20;;
68484;SDS011;55472;50.060;21.960;2022-09-12T00:47:13;9.68;;;2.35;;
68484;SDS011;55472;50.060;21.960;2022-09-12T00:49:50;5.50;;;2.40;;
68484;SDS011;55472;50.060;21.960;2022-09-12T01:00:39;9.77;;;2.17;;
68484;SDS011;55472;50.060;21.960;2022-09-12T01:03:11;5.50;;;1.80;;
68484;SDS011;55472;50.060;21.960;2022-09-12T01:06:04;6.63;;;2.00;;
68484;SDS011;55472;50.060;21.960;2022-09-12T01:08:33;5.55;;;1.83;;
68484;SDS011;55472;50.060;21.960;2022-09-12T01:11:02;6.47;;;2.45;;
68484;SDS011;55472;50.060;21.960;2022-09-12T01:13:30;6.43;;;2.08;;
68484;SDS011;55472;50.060;21.960;2022-09-12T01:15:58;5.90;;;2.17;;
68484;SDS011;55472;50.060;21.960;2022-09-12T01:18:28;5.73;;;2.20;;
68484;SDS011;55472;50.060;21.960;2022-09-12T01:30:16;8.18;;;2.10;;
68484;SDS011;55472;50.060;21.960;2022-09-12T01:35:51;5.35;;;2.38;;
68484;SDS011;55472;50.060;21.960;2022-09-12T01:41:24;4.95;;;2.08;;
68484;SDS011;55472;50.060;21.960;2022-09-12T01:47:26;4.73;;;2.23;;
68484;SDS011;55472;50.060;21.960;2022-09-12T01:52:53;4.13;;;1.88;;
68484;SDS011;55472;50.060;21.960;2022-09-12T01:58:28;5.43;;;2.00;;
68484;SDS011;55472;50.060;21.960;2022-09-12T02:01:09;6.43;;;1.70;;
68484;SDS011;55472;50.060;21.960;2022-09-12T02:03:45;4.82;;;1.92;;
68484;SDS011;55472;50.060;21.960;2022-09-12T02:06:17;7.88;;;1.92;;
68484;SDS011;55472;50.060;21.960;2022-09-12T02:08:52;5.25;;;1.73;;
68484;SDS011;55472;50.060;21.960;2022-09-12T02:11:23;4.93;;;1.80;;
68484;SDS011;55472;50.060;21.960;2022-09-12T02:16:41;6.00;;;2.05;;
68484;SDS011;55472;50.060;21.960;2022-09-12T02:19:17;4.50;;;2.00;;
68484;SDS011;55472;50.060;21.960;2022-09-12T02:21:57;4.65;;;2.05;;
68484;SDS011;55472;50.060;21.960;2022-09-12T02:24:27;6.05;;;1.98;;
68484;SDS011;55472;50.060;21.960;2022-09-12T02:27:20;9.23;;;1.90;;
68484;SDS011;55472;50.060;21.960;2022-09-12T02:30:10;5.50;;;1.80;;
68484;SDS011;55472;50.060;21.960;2022-09-12T02:35:43;6.85;;;2.20;;
68484;SDS011;55472;50.060;21.960;2022-09-12T02:38:19;5.70;;;1.90;;
68484;SDS011;55472;50.060;21.960;2022-09-12T02:40:56;5.27;;;1.77;;
68484;SDS011;55472;50.060;21.960;2022-09-12T02:43:22;5.35;;;1.73;;
68484;SDS011;55472;50.060;21.960;2022-09-12T02:45:48;12.35;;;1.98;;
68484;SDS011;55472;50.060;21.960;2022-09-12T02:48:22;6.22;;;1.75;;
68484;SDS011;55472;50.060;21.960;2022-09-12T02:50:52;7.78;;;1.95;;
68484;SDS011;55472;50.060;21.960;2022-09-12T02:53:19;6.13;;;1.80;;
68484;SDS011;55472;50.060;21.960;2022-09-12T02:55:45;6.45;;;1.88;;
68484;SDS011;55472;50.060;21.960;2022-09-12T02:58:12;4.97;;;1.75;;
68484;SDS011;55472;50.060;21.960;2022-09-12T03:06:18;8.07;;;2.00;;
68484;SDS011;55472;50.060;21.960;2022-09-12T03:12:02;5.55;;;2.28;;
68484;SDS011;55472;50.060;21.960;2022-09-12T03:17:53;7.78;;;2.03;;
68484;SDS011;55472;50.060;21.960;2022-09-12T03:23:50;4.63;;;1.90;;
68484;SDS011;55472;50.060;21.960;2022-09-12T03:26:32;4.68;;;1.80;;
68484;SDS011;55472;50.060;21.960;2022-09-12T03:29:14;5.97;;;1.85;;
68484;SDS011;55472;50.060;21.960;2022-09-12T03:31:53;7.03;;;2.00;;
68484;SDS011;55472;50.060;21.960;2022-09-12T03:34:22;4.90;;;1.97;;
68484;SDS011;55472;50.060;21.960;2022-09-12T03:36:51;5.35;;;2.05;;
68484;SDS011;55472;50.060;21.960;2022-09-12T03:39:20;4.70;;;2.03;;
68484;SDS011;55472;50.060;21.960;2022-09-12T03:41:49;5.65;;;2.10;;
68484;SDS011;55472;50.060;21.960;2022-09-12T03:44:16;5.28;;;2.10;;
68484;SDS011;55472;50.060;21.960;2022-09-12T03:46:42;6.43;;;2.17;;
68484;SDS011;55472;50.060;21.960;2022-09-12T03:49:08;7.75;;;1.90;;
68484;SDS011;55472;50.060;21.960;2022-09-12T03:51:35;8.55;;;2.10;;
68484;SDS011;55472;50.060;21.960;2022-09-12T03:54:02;5.35;;;2.10;;
68484;SDS011;55472;50.060;21.960;2022-09-12T03:56:29;4.78;;;2.05;;
68484;SDS011;55472;50.060;21.960;2022-09-12T03:58:55;5.60;;;1.97;;
68484;SDS011;55472;50.060;21.960;2022-09-12T04:01:21;4.07;;;1.67;;
68484;SDS011;55472;50.060;21.960;2022-09-12T04:03:49;6.13;;;1.95;;
68484;SDS011;55472;50.060;21.960;2022-09-12T04:06:18;4.88;;;2.30;;
68484;SDS011;55472;50.060;21.960;2022-09-12T04:08:47;5.75;;;2.45;;
68484;SDS011;55472;50.060;21.960;2022-09-12T04:11:18;10.40;;;2.40;;
68484;SDS011;55472;50.060;21.960;2022-09-12T04:13:46;4.95;;;2.05;;
68484;SDS011;55472;50.060;21.960;2022-09-12T04:16:12;5.10;;;2.10;;
68484;SDS011;55472;50.060;21.960;2022-09-12T04:18:40;8.15;;;2.20;;
68484;SDS011;55472;50.060;21.960;2022-09-12T04:21:13;5.82;;;2.30;;
68484;SDS011;55472;50.060;21.960;2022-09-12T04:23:42;6.80;;;2.37;;
68484;SDS011;55472;50.060;21.960;2022-09-12T04:26:09;7.80;;;2.58;;
68484;SDS011;55472;50.060;21.960;2022-09-12T04:28:36;8.05;;;2.40;;
68484;SDS011;55472;50.060;21.960;2022-09-12T04:31:21;7.90;;;2.38;;
68484;SDS011;55472;50.060;21.960;2022-09-12T04:33:54;5.32;;;2.28;;
68484;SDS011;55472;50.060;21.960;2022-09-12T04:36:24;6.70;;;2.20;;
68484;SDS011;55472;50.060;21.960;2022-09-12T04:38:52;11.05;;;2.75;;
68484;SDS011;55472;50.060;21.960;2022-09-12T04:41:19;5.93;;;2.42;;
68484;SDS011;55472;50.060;21.960;2022-09-12T04:43:51;7.43;;;2.40;;
68484;SDS011;55472;50.060;21.960;2022-09-12T04:46:20;5.40;;;2.45;;
68484;SDS011;55472;50.060;21.960;2022-09-12T04:48:47;6.43;;;2.97;;
68484;SDS011;55472;50.060;21.960;2022-09-12T04:51:15;8.75;;;2.45;;
68484;SDS011;55472;50.060;21.960;2022-09-12T04:53:48;6.50;;;2.65;;
68484;SDS011;55472;50.060;21.960;2022-09-12T04:56:17;5.78;;;1.92;;
68484;SDS011;55472;50.060;21.960;2022-09-12T04:58:44;5.47;;;2.20;;
68484;SDS011;55472;50.060;21.960;2022-09-12T05:03:40;6.15;;;2.50;;
68484;SDS011;55472;50.060;21.960;2022-09-12T05:06:12;5.75;;;2.20;;
68484;SDS011;55472;50.060;21.960;2022-09-12T05:08:40;4.88;;;2.30;;
68484;SDS011;55472;50.060;21.960;2022-09-12T05:11:08;7.13;;;2.25;;
68484;SDS011;55472;50.060;21.960;2022-09-12T05:13:40;7.90;;;2.43;;
68484;SDS011;55472;50.060;21.960;2022-09-12T05:16:08;7.03;;;2.03;;
68484;SDS011;55472;50.060;21.960;2022-09-12T05:18:36;5.30;;;2.22;;
68484;SDS011;55472;50.060;21.960;2022-09-12T05:21:04;7.78;;;2.50;;
68484;SDS011;55472;50.060;21.960;2022-09-12T05:23:32;7.93;;;2.38;;
68484;SDS011;55472;50.060;21.960;2022-09-12T05:25:58;5.40;;;2.43;;
68484;SDS011;55472;50.060;21.960;2022-09-12T05:28:29;6.55;;;2.25;;
68484;SDS011;55472;50.060;21.960;2022-09-12T05:31:09;6.47;;;2.40;;
68484;SDS011;55472;50.060;21.960;2022-09-12T05:33:41;8.73;;;2.50;;
68484;SDS011;55472;50.060;21.960;2022-09-12T05:36:11;5.43;;;2.10;;
68484;SDS011;55472;50.060;21.960;2022-09-12T05:38:42;6.17;;;2.00;;
68484;SDS011;55472;50.060;21.960;2022-09-12T05:41:09;9.23;;;2.80;;
68484;SDS011;55472;50.060;21.960;2022-09-12T05:43:43;7.15;;;2.38;;
68484;SDS011;55472;50.060;21.960;2022-09-12T05:46:11;6.85;;;2.40;;
68484;SDS011;55472;50.060;21.960;2022-09-12T05:48:43;7.95;;;2.60;;
68484;SDS011;55472;50.060;21.960;2022-09-12T05:51:15;7.20;;;2.80;;
68484;SDS011;55472;50.060;21.960;2022-09-12T05:53:48;4.93;;;2.30;;
68484;SDS011;55472;50.060;21.960;2022-09-12T05:56:18;7.50;;;2.50;;
68484;SDS011;55472;50.060;21.960;2022-09-12T06:01:25;6.20;;;2.45;;
68484;SDS011;55472;50.060;21.960;2022-09-12T06:03:52;6.27;;;2.53;;
68484;SDS011;55472;50.060;21.960;2022-09-12T06:06:21;5.22;;;2.65;;
68484;SDS011;55472;50.060;21.960;2022-09-12T06:08:49;6.93;;;2.75;;
68484;SDS011;55472;50.060;21.960;2022-09-12T06:11:20;7.93;;;2.90;;
68484;SDS011;55472;50.060;21.960;2022-09-12T06:13:50;5.20;;;2.40;;
68484;SDS011;55472;50.060;21.960;2022-09-12T06:18:52;5.63;;;2.53;;
68484;SDS011;55472;50.060;21.960;2022-09-12T06:21:24;11.07;;;2.70;;
68484;SDS011;55472;50.060;21.960;2022-09-12T06:23:54;6.90;;;2.60;;
68484;SDS011;55472;50.060;21.960;2022-09-12T06:26:20;6.05;;;2.50;;
68484;SDS011;55472;50.060;21.960;2022-09-12T06:28:50;5.80;;;2.53;;
68484;SDS011;55472;50.060;21.960;2022-09-12T06:31:19;7.68;;;2.65;;
68484;SDS011;55472;50.060;21.960;2022-09-12T06:33:52;7.65;;;2.33;;
68484;SDS011;55472;50.060;21.960;2022-09-12T06:36:20;6.22;;;2.60;;
68484;SDS011;55472;50.060;21.960;2022-09-12T06:38:55;8.55;;;2.70;;
68484;SDS011;55472;50.060;21.960;2022-09-12T06:41:29;6.13;;;2.60;;
68484;SDS011;55472;50.060;21.960;2022-09-12T06:43:56;6.75;;;2.55;;
68484;SDS011;55472;50.060;21.960;2022-09-12T06:46:23;8.63;;;2.88;;
68484;SDS011;55472;50.060;21.960;2022-09-12T06:48:49;6.50;;;2.80;;
68484;SDS011;55472;50.060;21.960;2022-09-12T06:51:17;8.83;;;2.87;;
68484;SDS011;55472;50.060;21.960;2022-09-12T06:53:47;8.13;;;2.55;;
68484;SDS011;55472;50.060;21.960;2022-09-12T06:56:15;6.35;;;2.60;;
68484;SDS011;55472;50.060;21.960;2022-09-12T06:58:45;9.25;;;2.83;;
68484;SDS011;55472;50.060;21.960;2022-09-12T07:01:13;7.60;;;2.50;;
68484;SDS011;55472;50.060;21.960;2022-09-12T07:03:52;9.43;;;2.97;;
68484;SDS011;55472;50.060;21.960;2022-09-12T07:06:23;6.78;;;2.38;;
68484;SDS011;55472;50.060;21.960;2022-09-12T07:08:59;9.95;;;2.75;;
68484;SDS011;55472;50.060;21.960;2022-09-12T07:11:29;5.65;;;2.78;;
68484;SDS011;55472;50.060;21.960;2022-09-12T07:13:59;5.68;;;2.40;;
68484;SDS011;55472;50.060;21.960;2022-09-12T07:16:27;5.63;;;2.60;;
68484;SDS011;55472;50.060;21.960;2022-09-12T07:18:54;9.15;;;2.42;;
68484;SDS011;55472;50.060;21.960;2022-09-12T07:21:23;9.73;;;2.72;;
68484;SDS011;55472;50.060;21.960;2022-09-12T07:23:50;5.82;;;2.63;;
68484;SDS011;55472;50.060;21.960;2022-09-12T07:26:19;5.95;;;2.55;;
68484;SDS011;55472;50.060;21.960;2022-09-12T07:28:49;7.87;;;2.83;;
68484;SDS011;55472;50.060;21.960;2022-09-12T07:31:21;6.38;;;2.65;;
68484;SDS011;55472;50.060;21.960;2022-09-12T07:33:49;10.65;;;2.63;;
68484;SDS011;55472;50.060;21.960;2022-09-12T07:36:18;7.40;;;2.75;;
68484;SDS011;55472;50.060;21.960;2022-09-12T07:38:46;7.07;;;2.60;;
68484;SDS011;55472;50.060;21.960;2022-09-12T07:41:14;5.27;;;2.63;;
68484;SDS011;55472;50.060;21.960;2022-09-12T07:43:45;7.50;;;3.38;;
68484;SDS011;55472;50.060;21.960;2022-09-12T07:46:12;8.02;;;2.60;;
68484;SDS011;55472;50.060;21.960;2022-09-12T07:48:39;7.85;;;2.70;;
68484;SDS011;55472;50.060;21.960;2022-09-12T07:51:06;6.07;;;2.60;;
68484;SDS011;55472;50.060;21.960;2022-09-12T07:53:40;6.10;;;2.90;;
68484;SDS011;55472;50.060;21.960;2022-09-12T07:56:08;5.90;;;2.88;;
68484;SDS011;55472;50.060;21.960;2022-09-12T07:58:36;6.82;;;2.92;;
68484;SDS011;55472;50.060;21.960;2022-09-12T08:01:14;5.93;;;2.75;;
68484;SDS011;55472;50.060;21.960;2022-09-12T08:03:46;8.13;;;3.10;;
68484;SDS011;55472;50.060;21.960;2022-09-12T08:06:15;5.43;;;2.70;;
68484;SDS011;55472;50.060;21.960;2022-09-12T08:08:44;8.20;;;3.10;;
68484;SDS011;55472;50.060;21.960;2022-09-12T08:11:12;7.05;;;2.90;;
68484;SDS011;55472;50.060;21.960;2022-09-12T08:13:40;7.80;;;2.88;;
68484;SDS011;55472;50.060;21.960;2022-09-12T08:16:09;9.10;;;2.78;;
68484;SDS011;55472;50.060;21.960;2022-09-12T08:18:46;8.00;;;3.10;;
68484;SDS011;55472;50.060;21.960;2022-09-12T08:21:14;6.20;;;3.28;;
68484;SDS011;55472;50.060;21.960;2022-09-12T08:23:54;9.98;;;3.42;;
68484;SDS011;55472;50.060;21.960;2022-09-12T08:26:25;8.02;;;3.20;;
68484;SDS011;55472;50.060;21.960;2022-09-12T08:28:52;10.43;;;2.70;;
68484;SDS011;55472;50.060;21.960;2022-09-12T08:31:19;7.57;;;2.60;;
68484;SDS011;55472;50.060;21.960;2022-09-12T08:33:48;5.63;;;2.67;;
68484;SDS011;55472;50.060;21.960;2022-09-12T08:36:18;9.18;;;2.83;;
68484;SDS011;55472;50.060;21.960;2022-09-12T08:38:48;6.47;;;2.85;;
68484;SDS011;55472;50.060;21.960;2022-09-12T08:53:09;6.40;;;2.97;;
68484;SDS011;55472;50.060;21.960;2022-09-12T08:55:31;6.45;;;2.58;;
68484;SDS011;55472;50.060;21.960;2022-09-12T08:58:08;5.60;;;2.73;;
68484;SDS011;55472;50.060;21.960;2022-09-12T09:01:01;7.85;;;2.70;;
68484;SDS011;55472;50.060;21.960;2022-09-12T09:20:48;9.23;;;2.80;;
68484;SDS011;55472;50.060;21.960;2022-09-12T09:23:27;6.22;;;2.55;;
68484;SDS011;55472;50.060;21.960;2022-09-12T09:28:44;6.25;;;2.80;;
68484;SDS011;55472;50.060;21.960;2022-09-12T09:31:16;8.55;;;3.35;;
68484;SDS011;55472;50.060;21.960;2022-09-12T09:33:46;7.43;;;3.35;;
68484;SDS011;55472;50.060;21.960;2022-09-12T09:36:19;8.50;;;3.38;;
68484;SDS011;55472;50.060;21.960;2022-09-12T09:44:56;8.23;;;2.67;;
68484;SDS011;55472;50.060;21.960;2022-09-12T09:47:24;6.32;;;2.97;;
68484;SDS011;55472;50.060;21.960;2022-09-12T09:49:50;7.32;;;3.00;;
68484;SDS011;55472;50.060;21.960;2022-09-12T09:52:19;6.80;;;2.57;;
68484;SDS011;55472;50.060;21.960;2022-09-12T09:54:54;6.60;;;2.90;;
68484;SDS011;55472;50.060;21.960;2022-09-12T10:00:19;5.78;;;2.60;;
68484;SDS011;55472;50.060;21.960;2022-09-12T10:02:59;6.88;;;2.67;;
68484;SDS011;55472;50.060;21.960;2022-09-12T10:05:48;5.67;;;2.90;;
68484;SDS011;55472;50.060;21.960;2022-09-12T10:08:30;7.53;;;3.10;;
68484;SDS011;55472;50.060;21.960;2022-09-12T10:11:06;6.85;;;2.55;;
68484;SDS011;55472;50.060;21.960;2022-09-12T10:16:25;6.15;;;2.67;;
68484;SDS011;55472;50.060;21.960;2022-09-12T10:19:37;7.20;;;2.50;;
68484;SDS011;55472;50.060;21.960;2022-09-12T10:22:04;5.20;;;2.45;;
68484;SDS011;55472;50.060;21.960;2022-09-12T10:24:39;8.30;;;3.00;;
68484;SDS011;55472;50.060;21.960;2022-09-12T10:29:43;6.07;;;3.00;;
68484;SDS011;55472;50.060;21.960;2022-09-12T10:32:19;6.03;;;2.80;;
68484;SDS011;55472;50.060;21.960;2022-09-12T10:35:03;8.18;;;2.90;;
68484;SDS011;55472;50.060;21.960;2022-09-12T10:37:49;8.05;;;3.20;;
68484;SDS011;55472;50.060;21.960;2022-09-12T10:40:23;6.70;;;3.20;;
68484;SDS011;55472;50.060;21.960;2022-09-12T10:42:59;6.93;;;3.03;;
68484;SDS011;55472;50.060;21.960;2022-09-12T10:47:54;7.30;;;3.00;;
68484;SDS011;55472;50.060;21.960;2022-09-12T10:50:28;7.20;;;3.13;;
68484;SDS011;55472;50.060;21.960;2022-09-12T10:56:12;5.07;;;2.95;;
68484;SDS011;55472;50.060;21.960;2022-09-12T10:58:55;10.23;;;3.40;;
68484;SDS011;55472;50.060;21.960;2022-09-12T11:02:08;7.20;;;2.90;;
68484;SDS011;55472;50.060;21.960;2022-09-12T11:07:51;8.80;;;3.13;;
68484;SDS011;55472;50.060;21.960;2022-09-12T11:19:32;6.10;;;3.53;;
68484;SDS011;55472;50.060;21.960;2022-09-12T11:22:22;6.03;;;3.03;;
68484;SDS011;55472;50.060;21.960;2022-09-12T11:25:15;6.35;;;3.33;;
68484;SDS011;55472;50.060;21.960;2022-09-12T11:27:50;9.63;;;3.20;;
68484;SDS011;55472;50.060;21.960;2022-09-12T11:30:19;6.60;;;3.58;;
68484;SDS011;55472;50.060;21.960;2022-09-12T11:33:01;6.95;;;2.88;;
68484;SDS011;55472;50.060;21.960;2022-09-12T11:39:23;6.40;;;2.70;;
68484;SDS011;55472;50.060;21.960;2022-09-12T11:42:02;8.43;;;3.03;;
68484;SDS011;55472;50.060;21.960;2022-09-12T11:44:41;5.40;;;2.92;;
68484;SDS011;55472;50.060;21.960;2022-09-12T11:47:12;8.25;;;2.53;;
68484;SDS011;55472;50.060;21.960;2022-09-12T11:49:45;5.53;;;2.53;;
68484;SDS011;55472;50.060;21.960;2022-09-12T11:52:19;6.00;;;2.42;;
68484;SDS011;55472;50.060;21.960;2022-09-12T11:54:50;5.07;;;2.40;;
68484;SDS011;55472;50.060;21.960;2022-09-12T12:05:42;5.00;;;2.30;;
68484;SDS011;55472;50.060;21.960;2022-09-12T12:08:21;4.93;;;2.30;;
68484;SDS011;55472;50.060;21.960;2022-09-12T12:13:30;5.15;;;2.63;;
68484;SDS011;55472;50.060;21.960;2022-09-12T12:16:22;7.22;;;2.55;;
68484;SDS011;55472;50.060;21.960;2022-09-12T12:21:41;4.83;;;2.40;;
68484;SDS011;55472;50.060;21.960;2022-09-12T12:29:03;6.50;;;2.78;;
68484;SDS011;55472;50.060;21.960;2022-09-12T12:34:33;6.07;;;2.80;;
68484;SDS011;55472;50.060;21.960;2022-09-12T12:47:38;7.73;;;2.80;;
68484;SDS011;55472;50.060;21.960;2022-09-12T12:52:49;6.72;;;3.65;;
68484;SDS011;55472;50.060;21.960;2022-09-12T12:55:34;5.45;;;2.90;;
68484;SDS011;55472;50.060;21.960;2022-09-12T13:03:43;5.90;;;2.70;;
68484;SDS011;55472;50.060;21.960;2022-09-12T13:06:35;6.70;;;3.10;;
68484;SDS011;55472;50.060;21.960;2022-09-12T13:09:22;7.32;;;3.08;;
68484;SDS011;55472;50.060;21.960;2022-09-12T13:12:02;6.78;;;3.00;;
68484;SDS011;55472;50.060;21.960;2022-09-12T13:17:27;6.90;;;3.10;;
68484;SDS011;55472;50.060;21.960;2022-09-12T13:22:41;6.13;;;2.92;;
68484;SDS011;55472;50.060;21.960;2022-09-12T13:25:22;7.75;;;3.25;;
68484;SDS011;55472;50.060;21.960;2022-09-12T13:28:02;6.40;;;3.10;;
68484;SDS011;55472;50.060;21.960;2022-09-12T13:33:50;7.57;;;2.72;;
68484;SDS011;55472;50.060;21.960;2022-09-12T13:44:59;7.32;;;3.08;;
68484;SDS011;55472;50.060;21.960;2022-09-12T13:50:07;9.13;;;3.60;;
68484;SDS011;55472;50.060;21.960;2022-09-12T13:52:45;8.52;;;3.45;;
68484;SDS011;55472;50.060;21.960;2022-09-12T13:58:24;7.15;;;3.00;;
68484;SDS011;55472;50.060;21.960;2022-09-12T14:01:06;6.85;;;3.00;;
68484;SDS011;55472;50.060;21.960;2022-09-12T14:03:50;6.68;;;3.17;;
68484;SDS011;55472;50.060;21.960;2022-09-12T14:11:54;7.82;;;3.50;;
68484;SDS011;55472;50.060;21.960;2022-09-12T14:14:26;7.07;;;2.80;;
68484;SDS011;55472;50.060;21.960;2022-09-12T14:17:00;8.60;;;2.90;;
68484;SDS011;55472;50.060;21.960;2022-09-12T14:19:47;9.38;;;3.00;;
68484;SDS011;55472;50.060;21.960;2022-09-12T14:22:13;5.80;;;2.90;;
68484;SDS011;55472;50.060;21.960;2022-09-12T14:24:46;5.82;;;2.92;;
68484;SDS011;55472;50.060;21.960;2022-09-12T14:27:18;7.60;;;2.92;;
68484;SDS011;55472;50.060;21.960;2022-09-12T14:30:00;8.00;;;3.17;;
68484;SDS011;55472;50.060;21.960;2022-09-12T14:32:33;7.88;;;3.05;;
68484;SDS011;55472;50.060;21.960;2022-09-12T14:35:04;7.67;;;3.10;;
68484;SDS011;55472;50.060;21.960;2022-09-12T14:37:40;6.20;;;2.92;;
68484;SDS011;55472;50.060;21.960;2022-09-12T14:40:14;6.50;;;2.95;;
68484;SDS011;55472;50.060;21.960;2022-09-12T14:42:48;5.78;;;2.78;;
68484;SDS011;55472;50.060;21.960;2022-09-12T14:45:24;5.85;;;3.08;;
68484;SDS011;55472;50.060;21.960;2022-09-12T14:47:54;6.80;;;3.20;;
68484;SDS011;55472;50.060;21.960;2022-09-12T14:50:22;5.25;;;2.90;;
68484;SDS011;55472;50.060;21.960;2022-09-12T14:53:02;6.05;;;2.75;;
68484;SDS011;55472;50.060;21.960;2022-09-12T14:55:42;5.45;;;2.80;;
68484;SDS011;55472;50.060;21.960;2022-09-12T14:58:25;5.97;;;2.95;;
68484;SDS011;55472;50.060;21.960;2022-09-12T15:03:31;6.95;;;3.67;;
68484;SDS011;55472;50.060;21.960;2022-09-12T15:06:19;7.22;;;3.33;;
68484;SDS011;55472;50.060;21.960;2022-09-12T15:08:59;6.38;;;2.47;;
68484;SDS011;55472;50.060;21.960;2022-09-12T15:11:31;5.65;;;3.38;;
68484;SDS011;55472;50.060;21.960;2022-09-12T15:13:58;5.80;;;2.80;;
68484;SDS011;55472;50.060;21.960;2022-09-12T15:16:36;7.85;;;3.30;;
68484;SDS011;55472;50.060;21.960;2022-09-12T15:19:02;6.78;;;3.35;;
68484;SDS011;55472;50.060;21.960;2022-09-12T15:21:28;6.03;;;3.00;;
68484;SDS011;55472;50.060;21.960;2022-09-12T15:23:54;8.33;;;3.53;;
68484;SDS011;55472;50.060;21.960;2022-09-12T15:26:21;7.35;;;3.13;;
68484;SDS011;55472;50.060;21.960;2022-09-12T15:28:51;6.45;;;3.17;;
68484;SDS011;55472;50.060;21.960;2022-09-12T15:33:51;8.10;;;3.80;;
68484;SDS011;55472;50.060;21.960;2022-09-12T15:36:20;8.40;;;3.78;;
68484;SDS011;55472;50.060;21.960;2022-09-12T15:38:47;7.97;;;3.70;;
68484;SDS011;55472;50.060;21.960;2022-09-12T15:41:15;6.97;;;3.22;;
68484;SDS011;55472;50.060;21.960;2022-09-12T15:43:55;8.40;;;3.75;;
68484;SDS011;55472;50.060;21.960;2022-09-12T15:46:21;7.43;;;3.80;;
68484;SDS011;55472;50.060;21.960;2022-09-12T15:48:47;7.85;;;4.13;;
68484;SDS011;55472;50.060;21.960;2022-09-12T15:51:15;7.93;;;3.85;;
68484;SDS011;55472;50.060;21.960;2022-09-12T15:53:44;8.50;;;3.85;;
68484;SDS011;55472;50.060;21.960;2022-09-12T15:56:13;13.82;;;5.25;;
68484;SDS011;55472;50.060;21.960;2022-09-12T15:58:41;10.53;;;4.97;;
68484;SDS011;55472;50.060;21.960;2022-09-12T16:01:11;9.13;;;4.13;;
68484;SDS011;55472;50.060;21.960;2022-09-12T16:03:38;10.30;;;4.30;;
68484;SDS011;55472;50.060;21.960;2022-09-12T16:06:05;7.93;;;3.83;;
68484;SDS011;55472;50.060;21.960;2022-09-12T16:08:32;7.97;;;3.75;;
68484;SDS011;55472;50.060;21.960;2022-09-12T16:11:02;7.93;;;4.03;;
68484;SDS011;55472;50.060;21.960;2022-09-12T16:13:32;7.07;;;3.55;;
68484;SDS011;55472;50.060;21.960;2022-09-12T16:15:58;7.50;;;3.78;;
68484;SDS011;55472;50.060;21.960;2022-09-12T16:18:25;8.10;;;3.63;;
68484;SDS011;55472;50.060;21.960;2022-09-12T16:20:53;8.70;;;3.50;;
68484;SDS011;55472;50.060;21.960;2022-09-12T16:23:20;7.88;;;3.60;;
68484;SDS011;55472;50.060;21.960;2022-09-12T16:25:54;7.43;;;3.67;;
68484;SDS011;55472;50.060;21.960;2022-09-12T16:28:28;6.95;;;4.13;;
68484;SDS011;55472;50.060;21.960;2022-09-12T16:30:57;6.47;;;3.80;;
68484;SDS011;55472;50.060;21.960;2022-09-12T16:33:26;11.60;;;6.73;;
68484;SDS011;55472;50.060;21.960;2022-09-12T16:35:59;12.10;;;5.47;;
68484;SDS011;55472;50.060;21.960;2022-09-12T16:38:43;16.00;;;8.25;;
68484;SDS011;55472;50.060;21.960;2022-09-12T16:41:11;15.25;;;7.75;;
68484;SDS011;55472;50.060;21.960;2022-09-12T16:43:38;13.73;;;7.38;;
68484;SDS011;55472;50.060;21.960;2022-09-12T16:46:06;21.00;;;10.20;;
68484;SDS011;55472;50.060;21.960;2022-09-12T16:48:35;19.33;;;9.43;;
68484;SDS011;55472;50.060;21.960;2022-09-12T16:51:03;10.52;;;5.80;;
68484;SDS011;55472;50.060;21.960;2022-09-12T16:53:32;9.55;;;5.65;;
68484;SDS011;55472;50.060;21.960;2022-09-12T16:56:02;8.52;;;4.53;;
68484;SDS011;55472;50.060;21.960;2022-09-12T16:58:33;7.83;;;4.23;;
68484;SDS011;55472;50.060;21.960;2022-09-12T17:01:01;9.00;;;4.70;;
68484;SDS011;55472;50.060;21.960;2022-09-12T17:03:30;11.73;;;4.80;;
68484;SDS011;55472;50.060;21.960;2022-09-12T17:06:00;8.63;;;4.82;;
68484;SDS011;55472;50.060;21.960;2022-09-12T17:08:32;11.80;;;5.18;;
68484;SDS011;55472;50.060;21.960;2022-09-12T17:11:01;6.47;;;3.73;;
68484;SDS011;55472;50.060;21.960;2022-09-12T17:13:32;8.95;;;4.00;;
68484;SDS011;55472;50.060;21.960;2022-09-12T17:15:59;8.07;;;4.30;;
68484;SDS011;55472;50.060;21.960;2022-09-12T17:18:31;9.73;;;4.50;;
68484;SDS011;55472;50.060;21.960;2022-09-12T17:20:57;9.32;;;5.28;;
68484;SDS011;55472;50.060;21.960;2022-09-12T17:23:23;14.23;;;6.80;;
68484;SDS011;55472;50.060;21.960;2022-09-12T17:25:51;13.27;;;6.00;;
68484;SDS011;55472;50.060;21.960;2022-09-12T17:28:18;13.18;;;6.10;;
68484;SDS011;55472;50.060;21.960;2022-09-12T17:30:44;11.40;;;5.65;;
68484;SDS011;55472;50.060;21.960;2022-09-12T17:33:11;10.77;;;5.07;;
68484;SDS011;55472;50.060;21.960;2022-09-12T17:35:37;10.17;;;6.20;;
68484;SDS011;55472;50.060;21.960;2022-09-12T17:38:04;10.32;;;4.88;;
68484;SDS011;55472;50.060;21.960;2022-09-12T17:40:30;9.23;;;4.53;;
68484;SDS011;55472;50.060;21.960;2022-09-12T17:42:59;11.18;;;4.85;;
68484;SDS011;55472;50.060;21.960;2022-09-12T17:45:26;10.10;;;4.95;;
68484;SDS011;55472;50.060;21.960;2022-09-12T17:47:53;8.03;;;4.77;;
68484;SDS011;55472;50.060;21.960;2022-09-12T17:50:19;10.30;;;4.70;;
68484;SDS011;55472;50.060;21.960;2022-09-12T17:52:45;10.88;;;4.70;;
68484;SDS011;55472;50.060;21.960;2022-09-12T17:55:12;9.55;;;5.18;;
68484;SDS011;55472;50.060;21.960;2022-09-12T17:57:39;9.50;;;5.37;;
68484;SDS011;55472;50.060;21.960;2022-09-12T18:00:06;10.77;;;5.82;;
68484;SDS011;55472;50.060;21.960;2022-09-12T18:02:33;10.23;;;5.55;;
68484;SDS011;55472;50.060;21.960;2022-09-12T18:05:00;11.35;;;5.70;;
68484;SDS011;55472;50.060;21.960;2022-09-12T18:07:30;11.68;;;6.75;;
68484;SDS011;55472;50.060;21.960;2022-09-12T18:09:57;15.17;;;6.80;;
68484;SDS011;55472;50.060;21.960;2022-09-12T18:12:23;12.10;;;6.93;;
68484;SDS011;55472;50.060;21.960;2022-09-12T18:14:50;13.00;;;6.90;;
68484;SDS011;55472;50.060;21.960;2022-09-12T18:17:15;14.07;;;7.20;;
68484;SDS011;55472;50.060;21.960;2022-09-12T18:19:42;16.02;;;8.02;;
68484;SDS011;55472;50.060;21.960;2022-09-12T18:22:08;14.23;;;8.40;;
68484;SDS011;55472;50.060;21.960;2022-09-12T18:24:35;17.67;;;8.77;;